Date,TemperatureHighF,TemperatureAvgF,TemperatureLowF,DewpointHighF,DewpointAvgF,DewpointLowF,HumidityHigh,HumidityAvg,HumidityLow,PressureMaxIn,PressureMinIn,WindSpeedMaxMPH,WindSpeedAvgMPH,GustSpeedMaxMPH,PrecipitationSumIn
2012-1-1,46.8,37.7,28.0,42.8,33.9,26.3,94,86,58,30.02,29.60,7,2,13,0.05
2012-1-2,47.4,38.8,28.3,44.7,27.3,8.9,91,64,26,29.68,29.49,9,4,21,0.02
2012-1-3,32.8,23.4,11.5,19.7,7.6,-3.9,64,50,39,29.98,29.67,8,4,22,0.00
2012-1-4,26.4,17.2,8.3,7.8,0.3,-10.9,62,48,26,30.06,29.86,7,4,15,0.00
2012-1-5,36.6,29.6,24.7,23.8,15.0,7.6,69,54,43,29.88,29.69,8,3,15,0.00
2012-1-6,46.7,32.5,24.7,29.6,22.3,12.9,85,66,38,29.90,29.69,5,1,9,0.00
2012-1-7,57.7,34.9,26.2,36.8,26.6,12.8,88,74,37,29.84,29.60,5,1,13,0.00
2012-1-8,41.8,36.2,28.3,27.4,23.2,15.3,82,59,39,30.23,29.83,6,2,11,0.00
2012-1-9,39.2,29.5,22.7,18.7,14.9,-3.2,71,55,16,30.26,29.94,7,2,10,0.00
2012-1-10,46.2,35.4,25.2,28.1,24.7,13.5,89,66,30,29.93,29.70,9,2,15,0.00
2012-1-11,37.9,30.4,22.1,27.8,21.4,7.6,88,70,42,30.10,29.91,5,1,9,0.00
2012-1-12,38.7,34.6,30.7,35.8,31.1,27.8,91,87,75,30.04,29.47,8,3,17,0.84
2012-1-13,47.8,34.4,30.0,40.3,27.2,16.5,93,76,48,29.55,29.12,16,5,26,0.02
2012-1-14,33.2,28.6,14.7,21.6,14.1,4.0,63,54,30,29.98,29.53,10,5,19,0.00
2012-1-15,15.0,8.0,3.3,4.4,-3.0,-13.7,65,60,44,30.25,29.98,8,4,15,0.00
2012-1-16,31.4,26.9,11.5,28.6,8.7,-8.6,89,48,20,30.53,30.07,8,4,13,0.00
2012-1-17,44.7,36.3,30.3,41.5,32.8,23.0,91,87,61,30.07,29.41,7,3,12,0.08
2012-1-18,49.0,34.3,19.2,42.2,17.9,-1.7,88,52,33,30.11,29.38,12,6,24,0.01
2012-1-19,33.0,22.7,12.0,27.6,12.1,0.7,87,63,45,30.26,29.92,8,2,13,0.00
2012-1-20,31.4,25.6,19.6,28.7,15.9,1.6,91,69,40,30.24,29.88,8,2,17,0.00
2012-1-21,20.4,17.8,13.9,16.8,9.6,-0.6,86,71,44,30.31,30.09,6,2,10,0.00
2012-1-22,29.6,19.9,8.5,21.5,12.9,3.7,82,74,60,30.52,30.31,5,1,7,0.00
2012-1-23,40.7,32.6,26.2,38.5,27.8,20.5,93,82,73,30.47,29.82,4,1,7,0.25
2012-1-24,53.8,45.2,34.6,45.3,37.7,23.2,94,76,44,29.99,29.80,9,2,16,0.01
2012-1-25,40.8,36.6,32.5,27.4,24.5,10.7,74,61,31,30.16,29.99,8,3,16,0.00
2012-1-26,41.7,34.3,30.1,31.0,25.3,8.9,91,71,36,30.17,29.96,8,2,12,0.03
2012-1-27,42.8,38.1,32.7,40.9,35.6,30.5,93,90,70,29.95,29.23,7,2,13,1.35
2012-1-28,45.9,39.2,34.0,30.7,26.8,11.2,71,61,28,29.95,29.56,9,3,23,0.00
2012-1-29,40.1,32.8,28.3,23.0,18.0,17.1,63,54,49,29.98,29.95,3,2,5,0.00
2012-1-30,38.3,31.1,22.8,30.9,18.9,3.1,83,61,26,30.25,29.88,10,2,20,0.00
2012-1-31,42.5,32.8,23.1,31.2,25.3,17.2,91,74,37,30.25,29.98,4,1,60,0.00
2012-2-1,55.7,39.4,31.6,43.2,33.8,19.7,94,81,33,29.99,29.71,10,2,18,0.04
2012-2-2,40.3,35.2,29.8,30.9,27.0,18.8,80,71,61,30.16,29.91,5,2,10,0.00
2012-2-3,36.8,29.8,22.7,21.3,14.3,-22.6,67,54,11,30.33,30.15,8,3,17,0.00
2012-2-4,39.4,33.2,26.4,25.2,17.9,8.5,76,54,31,30.21,30.07,9,3,16,0.00
2012-2-5,30.8,23.0,17.7,12.3,9.9,-0.3,72,57,27,30.14,30.09,5,2,10,0.00
2012-2-6,39.4,33.7,30.3,25.1,21.7,13.8,72,61,44,29.93,29.82,9,3,16,0.00
2012-2-7,42.8,34.0,25.0,26.8,21.6,13.9,84,61,43,30.21,29.83,6,2,14,0.00
2012-2-8,38.5,28.2,15.6,20.5,10.4,-0.5,79,49,21,30.28,30.01,7,2,11,0.00
2012-2-9,43.3,31.3,23.2,20.1,14.8,-12.0,74,52,14,30.03,29.94,7,1,12,0.00
2012-2-10,49.4,42.1,39.0,28.9,23.0,-4.9,66,50,16,29.93,29.84,3,-318,4,0.00
2012-2-11,39.8,35.0,26.7,29.9,24.8,2.4,87,66,20,29.84,29.51,8,3,15,0.00
2012-2-12,27.5,18.8,13.7,13.4,0.5,-15.3,55,45,16,29.86,29.53,11,5,25,0.00
2012-2-13,35.5,20.8,13.7,19.9,8.2,-1.2,68,58,44,29.86,29.77,11,4,20,0.00
2012-2-14,43.5,34.6,28.4,21.0,15.6,3.7,65,46,23,30.07,30.01,7,1,10,0.00
2012-2-15,43.6,35.6,29.5,33.9,28.6,19.0,87,75,63,30.18,30.05,3,1,5,0.00
2012-2-16,45.5,36.1,24.6,34.9,29.5,21.9,90,78,53,30.24,29.99,6,2,8,0.06
2012-2-17,50.6,41.5,32.6,39.6,30.1,14.2,90,66,27,29.99,29.80,8,3,14,0.00
2012-2-18,44.7,35.1,30.5,30.1,20.1,-13.3,69,56,11,29.92,29.82,8,4,21,0.00
2012-2-19,40.9,39.3,38.3,20.0,15.1,4.9,44,37,25,30.00,29.98,6,4,10,0.00
2012-2-20,38.0,32.7,25.9,20.5,12.5,-6.9,66,44,14,30.26,30.04,11,3,21,0.00
2012-2-21,38.9,31.1,20.6,31.4,21.6,3.9,85,68,33,30.29,29.82,8,2,12,0.00
2012-2-22,54.2,39.9,30.1,35.2,29.6,21.2,90,70,32,29.82,29.51,10,2,18,0.00
2012-2-23,51.8,44.7,33.4,41.5,31.4,13.9,87,61,26,29.75,29.34,9,3,23,0.05
2012-2-24,40.4,35.8,30.5,38.1,30.6,23.4,91,81,66,29.76,29.17,7,1,13,0.76
2012-2-25,43.2,37.3,30.4,33.8,22.9,15.1,91,57,35,29.75,29.16,17,7,30,0.01
2012-2-26,39.2,30.7,24.6,16.8,6.5,-16.0,63,38,17,30.40,29.75,10,4,20,0.00
2012-2-27,48.6,35.8,19.2,30.0,21.3,11.0,82,57,34,30.41,29.98,10,3,15,0.00
2012-2-28,44.4,38.0,28.3,33.3,20.9,3.2,71,50,22,30.35,29.98,10,3,19,0.00
2012-2-29,35.9,32.4,29.8,30.6,26.1,14.5,91,78,50,30.34,29.91,4,1,9,0.00
2012-3-1,33.8,30.9,24.4,31.3,28.7,22.2,92,91,90,29.91,29.74,9,3,14,0.05
2012-3-2,31.4,26.9,20.8,28.3,23.0,17.5,91,85,77,30.13,29.94,6,2,11,0.00
2012-3-3,42.5,35.7,30.1,38.6,33.3,27.3,94,90,79,29.94,29.32,6,2,11,0.13
2012-3-4,41.9,34.3,28.2,29.4,23.5,10.7,89,66,32,29.65,29.48,6,2,11,0.03
2012-3-5,35.4,29.3,22.9,22.4,13.0,-6.5,70,51,16,30.28,29.59,10,4,16,0.00
2012-3-6,38.9,25.7,17.4,16.3,6.8,-5.1,69,47,19,30.52,30.27,8,2,13,0.00
2012-3-7,56.9,40.3,22.9,34.1,25.8,9.9,80,58,27,30.52,30.18,12,4,18,0.01
2012-3-8,69.1,56.7,48.6,50.6,43.2,32.7,74,61,30,30.18,29.63,17,9,25,0.00
2012-3-9,60.7,41.4,32.2,48.7,25.2,12.4,86,54,30,30.10,29.63,16,4,25,0.01
2012-3-10,40.7,32.1,26.8,30.0,22.4,9.4,89,68,41,30.47,30.10,7,2,16,0.01
2012-3-11,57.5,41.8,26.6,28.2,21.5,-2.1,82,49,10,30.46,30.19,12,5,18,0.00
2012-3-12,72.0,58.9,37.0,37.3,31.5,19.8,72,38,19,30.22,30.05,9,2,15,0.00
2012-3-13,68.4,54.6,49.8,53.8,44.6,35.9,84,69,54,30.07,29.86,11,3,16,0.02
2012-3-14,55.9,44.5,38.4,51.9,40.9,34.9,91,87,80,30.22,29.90,4,2,9,4.04
2012-3-15,43.7,39.3,36.5,33.2,31.7,30.7,80,74,64,30.33,30.21,8,2,10,0.00
2012-3-16,42.5,39.3,35.7,39.7,34.6,21.5,92,83,68,30.32,30.05,7,2,12,0.05
2012-3-17,51.2,43.7,36.1,42.5,38.8,33.7,93,83,66,30.32,30.10,5,1,8,0.48
2012-3-18,79.2,54.2,35.2,49.6,42.1,32.8,92,68,23,30.29,30.07,8,2,12,0.00
2012-3-19,78.2,55.8,43.3,57.9,44.1,26.0,90,68,25,30.24,30.07,7,2,11,0.00
2012-3-20,79.1,53.3,38.7,57.4,42.6,31.7,89,70,30,30.28,30.17,7,2,10,0.00
2012-3-21,79.3,71.4,56.4,71.7,54.3,39.3,92,56,29,30.29,30.16,9,4,15,0.00
2012-3-22,83.8,67.5,55.3,55.8,52.2,27.7,89,62,20,30.19,29.93,8,3,12,0.00
2012-3-23,72.8,65.6,58.3,53.6,37.2,19.4,74,38,19,30.09,29.94,10,3,18,0.00
2012-3-24,59.9,49.8,45.2,36.8,27.3,17.8,72,43,22,30.13,29.99,6,2,12,0.00
2012-3-25,46.4,44.0,41.5,41.1,38.1,34.2,89,79,63,30.01,29.68,6,1,8,0.06
2012-3-26,43.9,38.0,31.8,38.1,21.1,-5.8,91,54,16,29.93,29.57,14,5,26,0.00
2012-3-27,45.2,30.7,25.0,6.3,0.3,-5.6,33,27,12,30.10,29.92,11,6,23,0.00
2012-3-28,51.7,47.7,40.4,43.0,38.1,22.1,90,70,45,29.82,29.51,9,3,14,0.02
2012-3-29,45.3,41.7,38.1,39.7,32.6,25.4,87,70,52,29.87,29.50,8,3,17,0.01
2012-3-30,47.4,37.3,30.6,26.0,19.9,4.9,77,52,19,29.98,29.86,9,3,19,0.00
2012-3-31,47.3,40.3,30.0,32.2,29.2,16.9,86,65,48,29.95,29.84,6,2,9,0.00
2012-4-1,53.1,39.3,26.3,39.4,30.3,17.0,91,73,26,29.86,29.58,7,2,12,0.16
2012-4-2,42.4,39.5,37.7,38.9,30.7,9.8,91,74,27,29.76,29.55,9,4,16,0.07
2012-4-3,56.8,42.2,32.1,21.9,12.6,4.6,54,31,16,29.79,29.67,10,3,19,0.00
2012-4-4,61.4,49.1,34.3,35.6,22.4,13.3,67,37,18,29.70,29.42,10,3,21,0.00
2012-4-5,50.6,42.0,36.4,30.9,24.3,7.4,75,50,28,29.86,29.60,9,4,18,0.00
2012-4-6,51.8,41.3,30.1,24.5,19.7,7.0,74,44,21,29.94,29.83,9,3,17,0.00
2012-4-7,50.9,41.6,30.2,29.7,21.4,-0.8,68,45,20,29.97,29.87,10,3,18,0.00
2012-4-8,49.7,43.5,36.8,30.7,26.2,20.4,76,51,36,29.94,29.56,8,2,17,0.00
2012-4-9,53.4,46.3,33.0,33.1,30.5,27.0,80,54,41,29.58,29.44,13,5,24,0.00
2012-4-10,60.6,49.2,40.4,32.1,27.1,6.6,68,43,19,29.73,29.55,9,3,18,0.00
2012-4-11,57.0,46.2,37.8,35.7,32.0,21.6,75,58,35,29.84,29.71,10,2,14,0.00
2012-4-12,52.4,44.1,38.4,42.0,37.2,32.3,91,77,50,30.04,29.82,7,2,12,0.39
2012-4-13,64.6,47.0,31.8,37.4,28.9,11.7,93,58,16,30.10,29.95,7,2,15,0.00
2012-4-14,70.5,54.7,36.0,33.0,27.0,9.9,75,39,15,30.09,29.91,12,2,18,0.00
2012-4-15,77.7,63.8,46.6,53.3,44.6,29.0,70,50,31,29.95,29.83,10,3,18,0.00
2012-4-16,90.2,73.8,58.5,57.3,53.4,38.5,88,53,17,29.95,29.82,12,4,19,0.00
2012-4-17,83.0,70.2,58.4,55.2,38.5,20.4,84,39,11,30.08,29.83,8,3,16,0.00
2012-4-18,62.6,52.6,44.6,37.5,30.5,8.9,74,44,24,30.20,30.08,8,3,16,0.00
2012-4-19,72.1,55.3,40.4,43.3,38.7,29.0,88,58,20,30.09,29.91,8,2,14,0.00
2012-4-20,77.2,60.1,44.3,53.4,42.8,39.0,84,56,25,29.96,29.86,11,4,18,0.00
2012-4-21,77.8,64.3,55.7,55.6,50.9,41.5,83,63,37,29.87,29.63,12,5,21,0.00
2012-4-22,60.8,49.9,41.7,56.1,46.3,38.9,91,87,75,29.81,29.62,8,3,67,1.02
2012-4-23,64.8,51.4,41.3,60.0,47.8,38.7,94,87,75,29.67,29.27,11,4,25,4.09
2012-4-24,56.9,50.1,45.7,42.6,34.4,27.2,82,56,33,29.67,29.36,12,6,23,0.00
2012-4-25,59.9,48.7,36.4,39.3,32.5,18.7,91,57,20,29.83,29.66,10,3,19,0.00
2012-4-26,65.7,49.4,33.0,47.9,35.5,28.9,85,61,28,29.91,29.51,9,3,15,0.02
2012-4-27,55.6,49.0,39.1,48.7,34.8,13.0,91,60,20,29.94,29.46,12,4,22,0.02
2012-4-28,58.8,45.7,35.8,22.2,19.0,1.1,57,36,16,30.08,29.94,8,4,19,0.00
2012-4-29,57.1,46.5,35.4,27.9,16.8,0.1,69,33,14,30.17,29.94,9,3,23,0.00
2012-4-30,63.0,47.6,30.5,34.5,23.7,3.1,73,41,11,30.28,30.15,7,2,12,0.00
2012-5-1,50.5,45.8,43.1,44.0,40.2,30.0,92,82,46,30.17,30.03,8,2,14,0.72
2012-5-2,51.8,47.3,43.8,45.6,43.2,41.6,93,85,75,30.19,30.10,4,2,8,0.02
2012-5-3,53.9,48.6,45.6,47.8,45.2,42.3,92,88,78,30.17,30.05,5,2,8,0.09
2012-5-4,55.7,51.8,48.1,52.6,49.2,46.1,93,90,88,30.07,29.89,7,2,11,0.04
2012-5-5,64.8,54.1,48.9,53.6,49.3,45.6,93,84,64,30.05,29.90,5,1,9,0.05
2012-5-6,62.1,52.8,43.5,49.0,42.5,24.6,91,70,24,30.11,30.02,7,2,13,0.00
2012-5-7,70.8,56.2,43.1,48.1,41.0,33.5,90,60,31,30.10,30.04,8,2,13,0.00
2012-5-8,54.8,52.4,47.7,52.1,45.5,37.3,91,78,53,30.06,29.83,6,3,10,0.35
2012-5-9,64.0,59.7,54.7,59.5,56.6,52.2,92,89,84,29.83,29.55,5,2,56,0.21
2012-5-10,64.9,56.9,49.5,57.1,49.0,40.1,93,76,49,29.65,29.34,9,3,17,0.53
2012-5-11,65.5,53.2,44.4,45.2,37.7,30.4,85,58,30,30.00,29.64,8,3,17,0.00
2012-5-12,79.0,59.4,37.0,49.6,37.0,24.8,90,51,18,30.10,29.98,8,2,15,0.00
2012-5-13,84.5,65.2,47.6,52.8,46.7,27.5,90,56,22,30.11,29.98,9,2,15,0.00
2012-5-14,72.0,61.8,57.1,59.9,54.7,52.1,89,78,55,30.13,30.08,7,2,10,0.16
2012-5-15,73.9,63.4,57.4,58.8,55.3,42.2,92,76,37,30.12,29.92,10,3,16,0.40
2012-5-16,73.3,65.1,60.0,63.8,60.7,57.7,93,85,67,29.93,29.76,28,2,103,0.00
2012-5-17,67.7,57.9,46.1,60.8,43.6,18.5,89,62,15,30.10,29.82,8,2,18,0.00
2012-5-18,72.5,56.9,41.8,44.3,41.2,35.4,89,60,33,30.21,30.10,7,2,12,0.00
2012-5-19,78.7,61.3,42.8,50.1,43.9,39.6,89,57,27,30.15,30.07,6,2,11,0.00
2012-5-20,63.7,60.6,55.7,46.4,43.9,41.2,70,54,45,30.26,30.22,3,1,6,0.00
2012-5-21,70.2,59.2,47.3,60.6,53.2,43.2,91,80,68,30.26,30.05,8,2,11,0.00
2012-5-22,63.5,60.0,57.4,60.7,57.8,55.4,93,92,89,30.04,29.80,4,2,8,0.61
2012-5-23,79.1,66.9,60.6,63.4,60.1,57.5,93,79,56,30.03,29.80,4,1,26,0.01
2012-5-24,78.7,67.1,58.0,70.7,59.2,55.3,91,76,55,30.21,30.02,8,2,14,0.00
2012-5-25,75.7,65.8,58.5,64.8,60.0,50.7,91,82,52,30.22,30.06,6,2,12,0.00
2012-5-26,85.6,73.0,61.7,69.0,64.5,57.7,89,75,45,30.07,29.98,8,2,12,0.00
2012-5-27,79.6,64.0,55.7,59.8,53.1,48.6,88,70,38,30.14,29.98,5,1,9,0.00
2012-5-28,78.6,65.9,58.9,59.3,55.3,51.7,86,69,47,30.00,29.90,7,3,13,0.00
2012-5-29,77.7,65.9,60.0,65.3,59.7,53.2,91,80,64,29.93,29.68,5,2,8,0.00
2012-5-30,75.9,69.9,63.9,65.4,61.7,57.1,92,75,51,29.71,29.66,4,2,8,0.00
2012-5-31,79.1,70.0,61.0,60.4,53.1,29.7,87,58,24,29.89,29.68,8,2,13,0.00
2012-6-1,72.6,62.8,55.6,49.5,44.7,21.8,71,52,23,30.05,29.89,7,2,12,0.00
2012-6-2,59.9,57.2,53.2,57.4,52.9,46.3,92,85,66,29.99,29.66,8,3,15,1.17
2012-6-3,59.5,57.1,52.4,57.5,53.1,47.9,93,86,72,29.67,29.62,9,3,24,0.03
2012-6-4,52.4,50.3,48.5,49.0,47.3,45.4,92,89,83,29.77,29.59,9,3,43,0.39
2012-6-5,58.6,51.6,48.1,49.7,47.2,37.3,92,85,65,29.91,29.74,6,2,11,0.03
2012-6-6,66.6,56.7,49.3,51.8,48.5,36.5,92,74,54,29.96,29.90,6,1,10,0.03
2012-6-7,70.3,58.0,48.4,57.6,51.7,45.5,94,80,51,29.95,29.87,5,1,10,0.06
2012-6-8,78.2,61.8,49.5,60.4,53.8,39.4,95,77,29,29.91,29.70,8,2,14,0.02
2012-6-9,78.2,71.1,56.9,59.4,51.0,24.0,88,52,29,29.91,29.79,7,2,14,0.02
2012-6-10,78.3,61.2,52.0,54.8,49.5,32.1,90,69,22,30.18,29.90,7,1,10,0.00
2012-6-11,75.8,64.7,52.0,57.6,52.9,48.5,89,66,45,30.26,30.16,7,3,12,0.00
2012-6-12,76.5,66.6,58.2,60.3,55.8,49.9,84,68,53,30.17,29.93,8,4,13,0.00
2012-6-13,66.3,63.7,62.1,63.1,60.8,58.7,92,90,84,30.04,29.89,6,2,40,0.70
2012-6-14,76.5,65.5,55.8,62.0,54.4,36.3,92,70,24,30.23,30.04,19,2,45,0.00
2012-6-15,76.0,63.1,51.0,55.8,50.9,46.5,91,66,40,30.29,30.21,7,2,12,0.00
2012-6-16,65.3,57.5,49.1,55.2,50.8,45.7,91,78,62,30.33,30.24,5,2,12,0.00
2012-6-17,70.0,53.6,45.2,53.4,47.2,39.6,91,80,51,30.26,30.16,6,1,10,0.00
2012-6-18,71.9,62.9,55.2,55.4,51.9,43.2,90,68,45,30.12,30.07,7,2,11,0.00
2012-6-19,75.1,64.7,51.9,62.6,57.2,46.2,92,77,41,30.12,29.98,7,3,12,0.00
2012-6-20,95.9,79.6,63.2,75.8,67.7,60.2,90,69,42,29.97,29.81,6,2,13,0.00
2012-6-21,83.9,78.3,74.6,72.5,70.5,68.1,82,76,66,29.83,29.69,1,0,4,0.00
2012-6-22,93.2,80.0,67.8,74.3,65.9,46.6,88,64,20,29.73,29.65,6,2,12,0.01
2012-6-23,87.3,71.3,61.1,66.7,62.6,45.5,90,76,33,29.89,29.73,8,1,18,1.20
2012-6-24,83.6,70.4,55.6,59.3,53.9,31.9,91,60,18,29.91,29.83,6,2,12,0.01
2012-6-25,72.3,67.4,62.7,64.5,60.4,57.2,91,78,67,29.82,29.60,6,2,11,3.49
2012-6-26,70.4,64.9,59.0,59.4,55.5,53.8,88,72,60,29.62,29.50,7,3,13,0.00
2012-6-27,79.1,72.4,64.9,66.6,59.4,53.6,72,63,57,29.69,29.55,7,-456,14,0.00
2012-6-28,83.0,69.5,59.1,60.7,55.4,42.6,82,62,28,29.71,29.65,6,2,12,0.00
2012-6-29,90.2,71.6,59.4,70.6,59.3,49.0,90,69,29,29.68,29.48,8,2,16,0.39
2012-6-30,82.9,69.9,60.9,58.2,55.3,53.2,81,60,39,29.67,29.58,7,2,18,0.00
2012-7-2,81.5,76.8,72.3,65.6,59.4,56.0,67,55,44,29.84,29.79,4,2,9,0.00
2012-8-22,83.2,70.8,61.7,68.2,56.8,52.2,90,63,33,30.08,29.10,12,1,12,0.00
2012-8-23,85.5,71.1,57.5,64.3,59.8,54.9,91,70,40,30.09,30.02,7,1,12,0.00
2012-8-24,84.1,71.5,60.0,64.8,61.6,57.6,92,72,47,30.17,30.07,6,1,10,0.00
2012-8-25,83.3,71.6,62.1,66.3,60.8,52.1,92,71,35,30.29,30.17,6,2,12,0.00
2012-8-26,84.1,69.3,57.6,62.5,58.2,54.3,91,70,36,30.30,30.18,6,1,10,0.00
2012-8-27,85.9,71.4,56.0,67.8,61.1,53.4,92,72,44,30.18,29.88,8,3,14,0.00
2012-8-28,84.2,74.6,68.0,68.9,65.1,55.9,91,73,51,29.88,29.66,9,2,18,0.24
2012-8-29,73.3,63.4,53.8,56.1,48.9,42.4,87,60,34,29.93,29.84,7,2,12,0.00
2012-8-30,79.3,73.3,65.6,54.8,53.7,50.1,64,50,40,29.92,29.90,8,4,15,0.00
2012-8-31,88.8,73.7,54.7,61.0,55.1,51.2,88,55,28,29.92,29.74,9,3,15,0.00
2012-9-1,78.4,69.2,58.0,64.3,58.8,52.0,89,70,46,30.08,29.80,7,1,11,0.00
2012-9-2,78.0,65.4,57.1,68.3,55.7,45.5,91,72,39,30.10,30.01,6,1,10,0.00
2012-9-3,79.1,66.7,58.5,60.0,57.8,53.6,93,74,42,30.19,30.09,6,2,11,0.00
2012-9-4,71.6,66.4,61.7,69.6,62.9,56.1,93,88,75,30.11,29.82,5,1,27,0.75
2012-9-5,80.2,74.0,67.5,72.0,68.2,63.2,93,82,61,29.82,29.64,8,3,15,0.00
2012-9-6,80.5,71.5,63.7,66.1,64.2,50.6,92,78,54,29.87,29.79,5,1,10,0.00
2012-9-7,86.8,73.9,64.4,68.6,64.9,56.7,93,76,36,29.88,29.80,11,1,148,0.00
2012-9-8,71.5,71.5,71.5,68.5,68.5,68.5,90,90,90,29.83,29.83,1,1,2,0.00
2012-9-9,73.5,65.1,54.5,59.7,54.6,51.5,91,70,49,29.82,29.74,5,1,8,0.00
2012-9-10,65.7,58.9,49.8,53.5,47.6,42.1,92,67,47,30.00,29.80,8,3,16,0.01
2012-9-11,74.8,55.0,44.0,52.9,44.9,35.0,89,71,30,30.21,30.00,4,1,7,0.00
2012-9-12,79.4,55.0,44.8,50.1,44.9,27.8,91,74,31,30.27,30.21,5,1,7,0.00
2012-9-14,77.6,69.9,64.5,61.2,60.3,56.0,83,72,51,30.05,30.02,6,3,8,0.00
2012-9-15,71.3,61.5,48.5,59.7,54.0,44.8,93,78,43,30.03,29.93,8,2,16,0.02
2012-9-16,68.0,52.3,43.2,48.0,43.9,30.6,91,76,27,30.04,29.97,7,1,14,0.00
2012-9-17,76.8,65.4,50.4,58.9,49.7,41.8,88,59,33,30.05,29.96,6,2,10,0.00
2012-9-18,74.5,64.6,50.8,66.6,58.3,48.3,92,80,67,30.01,29.64,13,4,24,0.05
2012-9-19,74.0,64.1,49.4,67.6,51.5,36.8,92,67,29,30.16,29.63,12,3,25,0.00
2012-9-20,66.6,53.7,43.8,47.7,43.4,35.8,88,69,34,30.22,30.11,5,2,8,0.00
2012-9-21,67.1,53.0,43.6,53.3,47.5,40.5,92,82,60,30.12,29.99,5,1,9,0.00
2012-9-22,71.7,58.9,53.8,59.6,54.9,51.8,93,86,62,29.99,29.78,5,2,8,0.03
2012-9-23,69.3,61.5,45.5,61.8,49.6,38.7,92,68,34,30.04,29.74,8,2,17,0.11
2012-9-24,65.7,50.9,39.6,44.6,39.5,34.0,92,69,35,30.07,29.99,8,1,13,0.00
2012-9-25,72.7,55.6,37.5,50.1,42.5,29.6,92,65,21,30.10,30.03,10,3,16,0.00
2012-9-26,72.6,64.3,57.2,60.8,57.3,48.5,90,78,46,30.08,29.93,9,3,14,0.01
2012-9-27,67.7,59.2,46.7,58.9,48.5,40.1,93,71,38,30.20,29.94,7,2,14,0.01
2012-9-28,54.9,51.2,44.6,53.2,49.0,41.5,93,92,86,30.20,29.94,4,1,9,0.77
2012-9-29,55.9,53.7,50.5,53.0,51.2,48.9,94,91,85,29.95,29.84,6,2,12,0.07
2012-9-30,59.4,54.3,50.7,54.4,52.1,48.9,94,91,81,29.88,29.65,4,1,6,0.13
2012-10-1,63.4,56.3,48.1,52.8,49.7,45.9,93,79,65,29.89,29.65,9,4,18,0.00
2012-10-2,69.3,59.3,51.1,60.0,54.7,48.9,93,85,53,30.02,29.88,6,1,10,1.41
2012-10-3,63.1,60.7,58.8,61.1,58.8,57.2,94,93,91,30.12,29.99,2,0,8,2.11
2012-10-4,60.9,59.3,58.0,58.9,57.7,56.4,95,94,92,30.13,29.99,20,1,26,0.28
2012-10-5,62.4,59.1,57.7,59.2,57.8,56.5,96,95,88,30.00,29.96,3,0,26,0.00
2012-10-6,74.8,62.1,50.6,59.9,51.3,44.5,80,67,54,29.88,29.64,8,3,14,0.01
2012-10-7,56.5,49.4,39.6,46.8,41.7,37.4,92,76,50,30.02,29.88,4,1,9,0.20
2012-10-8,55.2,47.3,37.7,45.2,42.2,36.0,94,83,61,30.26,30.00,4,1,19,0.02
2012-10-9,57.9,51.2,45.8,48.6,45.7,33.3,92,81,59,30.26,30.09,6,1,23,0.00
2012-10-10,60.1,53.9,48.9,58.4,51.2,38.4,94,90,72,30.10,29.67,6,2,19,0.16
2012-10-11,57.9,48.9,38.6,49.2,36.8,17.8,89,65,22,30.07,29.74,9,3,18,0.00
2012-10-12,52.7,43.2,36.1,41.3,32.7,21.0,90,68,35,30.31,29.93,8,2,16,0.06
2012-10-13,53.2,40.6,26.8,35.1,26.5,21.9,88,59,30,30.41,30.26,7,2,12,0.00
2012-10-14,63.9,51.3,42.4,55.4,46.4,31.3,93,83,59,30.27,29.89,8,2,12,0.44
2012-10-15,75.9,64.9,55.9,60.7,57.6,52.8,92,77,58,29.88,29.56,11,4,19,0.02
2012-10-16,61.3,52.0,35.5,59.1,46.4,32.8,94,81,55,29.85,29.52,7,2,18,0.37
2012-10-17,62.2,44.3,32.2,42.2,34.7,30.4,93,72,31,29.97,29.84,5,1,8,0.01
2012-10-18,66.1,49.2,35.1,49.3,42.1,33.1,93,78,48,30.09,29.96,7,1,12,0.00
2012-10-19,64.7,57.1,46.2,62.9,54.8,44.5,94,92,76,30.05,29.69,9,3,17,0.14
2012-10-20,74.7,64.9,55.0,64.8,57.8,44.3,94,79,43,29.73,29.56,7,2,13,1.31
2012-10-21,63.7,53.2,40.7,44.2,40.8,37.8,92,64,39,29.84,29.69,8,2,18,0.00
2012-10-22,65.0,52.5,42.8,42.9,40.4,37.9,89,66,37,29.95,29.82,10,2,19,0.00
2012-10-23,64.8,52.3,41.0,45.6,41.3,37.8,89,67,44,30.07,29.95,6,2,13,0.00
2012-10-24,56.6,47.5,39.2,41.5,37.6,26.0,89,70,45,30.17,30.07,4,1,6,0.00
2012-10-25,65.8,49.4,36.5,45.8,38.8,28.8,92,71,27,30.27,30.17,5,1,8,0.00
2012-10-26,68.0,51.8,39.8,53.3,45.9,37.4,92,81,59,30.21,30.07,8,1,11,0.00
2012-10-27,66.1,52.7,42.3,54.2,47.7,40.3,93,83,64,30.08,29.95,5,1,7,0.00
2012-10-28,54.9,51.1,48.5,50.3,47.6,44.7,93,87,80,29.99,29.76,6,3,14,0.18
2012-10-29,62.0,55.6,49.4,59.7,53.6,46.9,94,93,89,29.79,29.20,14,5,33,0.61
2012-10-30,68.5,60.2,50.9,59.5,56.7,49.5,94,88,66,29.58,29.28,10,3,22,0.30
2012-10-31,56.6,52.6,47.4,54.3,48.9,37.7,97,87,70,29.53,29.43,8,2,11,0.00
2012-11-1,49.3,45.8,42.5,41.1,39.8,35.9,88,79,67,29.53,29.48,4,0,8,0.00
2012-11-2,52.1,46.7,41.9,40.7,38.0,33.4,90,72,55,29.57,29.48,6,1,71,0.02
2012-11-3,48.9,44.2,40.3,35.5,33.1,31.0,73,64,53,29.75,29.56,7,2,16,0.00
2012-11-4,50.9,41.7,34.7,35.1,31.4,27.4,85,67,51,29.91,29.74,9,2,14,0.00
2012-11-5,38.3,35.4,30.2,28.6,22.7,8.2,77,59,47,30.08,29.90,7,2,12,0.00
2012-11-6,43.1,31.6,22.8,23.2,18.9,2.9,84,62,21,30.18,30.08,6,1,10,0.00
2012-11-7,36.0,33.6,28.4,30.6,22.2,15.9,92,63,43,30.15,29.75,11,5,20,0.00
2012-11-8,38.7,36.0,31.7,36.0,32.7,29.6,92,88,74,29.75,29.60,13,6,25,0.28
2012-11-9,51.3,41.4,36.7,31.3,27.2,17.2,74,58,30,30.05,29.72,8,4,18,0.00
2012-11-10,53.2,39.5,30.1,33.4,28.6,25.5,88,67,35,30.41,30.04,6,1,11,0.00
2012-11-11,63.2,48.4,30.6,44.6,39.3,27.6,89,72,46,30.45,30.35,9,2,14,0.00
2012-11-12,68.5,56.1,41.7,57.3,48.4,39.6,93,76,50,30.41,30.18,9,3,16,0.00
2012-11-13,65.2,50.2,38.6,58.7,44.9,26.0,91,81,66,30.37,30.07,12,3,28,1.24
2012-11-14,44.9,37.8,34.0,29.9,25.8,10.4,73,62,30,30.49,30.37,8,3,14,0.00
2012-11-15,37.8,32.9,30.0,31.0,25.8,23.5,90,75,64,30.43,30.26,6,2,12,0.00
2012-11-16,40.2,32.2,29.9,30.7,28.6,24.6,92,86,65,30.38,30.24,4,0,6,0.00
2012-11-17,48.7,34.9,26.4,31.3,27.1,18.9,89,75,32,30.60,30.38,4,1,7,0.00
2012-11-18,47.2,31.1,24.6,32.7,25.7,18.8,91,81,33,30.67,30.59,5,1,10,0.00
2012-11-19,44.4,33.2,26.6,33.7,27.7,23.8,91,80,61,30.50,30.22,4,1,7,0.00
2012-11-20,48.5,31.7,23.8,32.6,26.2,19.7,93,82,50,30.22,30.09,4,1,8,0.01
2012-11-21,50.8,42.5,34.5,38.9,34.9,24.1,92,75,38,30.22,30.15,8,2,11,0.00
2012-11-22,51.0,37.1,31.7,44.7,33.7,29.6,92,87,63,30.24,30.08,3,0,5,0.00
2012-11-23,46.8,45.1,35.3,42.1,40.9,32.8,90,85,78,29.72,29.59,5,2,9,0.01
2012-11-24,45.9,39.9,32.0,42.4,28.5,15.4,92,65,45,29.60,29.51,9,2,20,0.00
2012-11-25,37.9,33.5,28.4,23.5,17.3,0.6,73,52,31,29.81,29.60,10,4,22,0.00
2012-11-26,41.4,31.5,24.7,25.3,22.0,16.6,80,68,39,30.19,29.81,5,2,10,0.00
2012-11-27,35.0,30.8,23.5,32.5,27.8,19.3,93,88,79,30.26,30.18,5,1,9,0.05
2012-11-28,36.7,31.9,26.5,30.9,25.2,15.4,93,76,56,30.18,30.06,6,2,11,0.01
2012-11-29,42.6,34.1,24.5,25.3,22.4,1.7,87,63,28,30.19,30.08,10,3,18,0.00
2012-11-30,38.7,31.5,26.8,26.5,13.6,-7.4,70,48,23,30.50,30.12,7,3,13,0.00
2012-12-1,30.8,28.0,26.2,26.6,22.3,4.7,88,79,32,30.58,30.45,5,2,9,0.00
2012-12-2,49.7,37.5,28.0,44.6,34.3,25.3,93,88,77,30.45,29.97,8,2,134,0.03
2012-12-3,56.4,44.4,31.9,45.2,39.7,29.8,93,84,41,30.25,29.96,9,2,16,0.08
2012-12-4,57.3,43.5,31.2,53.2,41.1,24.8,94,91,57,30.26,29.90,8,1,14,0.00
2012-12-5,58.0,48.9,32.0,53.5,40.3,15.3,88,72,48,30.09,29.77,9,4,19,0.01
2012-12-6,33.8,30.8,28.2,18.8,16.9,1.9,62,56,31,30.27,30.09,8,4,16,0.00
2012-12-7,43.2,39.0,28.7,38.2,33.3,24.0,93,80,65,30.18,29.98,6,1,13,0.04
2012-12-8,41.9,40.4,38.9,40.3,38.7,37.3,94,93,92,29.99,29.82,5,0,8,0.20
2012-12-9,45.1,38.7,31.8,39.5,34.0,29.3,95,84,54,30.21,29.90,5,1,19,0.11
2012-12-10,49.1,45.2,39.3,47.7,43.6,32.6,95,93,61,30.12,29.44,5,0,9,0.62
2012-12-11,49.8,40.9,32.0,48.1,34.4,20.5,95,78,50,30.09,29.47,6,2,13,0.03
2012-12-12,38.3,30.1,24.7,26.5,23.6,21.8,90,77,54,30.38,30.09,4,0,6,0.00
2012-12-13,43.7,29.3,21.0,27.9,22.9,12.0,91,79,28,30.42,30.23,4,0,8,0.00
2012-12-14,37.2,26.4,21.2,27.4,22.7,18.7,90,86,63,30.23,30.09,6,0,10,0.00
2012-12-15,40.5,31.1,24.7,26.1,22.0,5.4,90,70,32,30.29,30.10,6,1,11,0.00
2012-12-16,29.6,27.3,24.7,25.7,21.1,16.4,92,78,66,30.29,30.06,5,2,9,0.00
2012-12-17,33.7,31.6,24.9,32.3,30.0,22.9,94,93,92,30.07,29.79,6,4,13,0.09
2012-12-18,47.5,39.3,33.7,46.1,37.8,32.3,95,94,91,29.79,29.39,6,2,16,1.07
2012-12-19,44.2,39.8,36.3,38.5,32.7,6.0,93,76,21,29.99,29.40,10,3,22,0.01
2012-12-20,39.6,34.7,26.5,32.7,28.4,20.7,92,78,54,30.17,29.99,4,1,8,0.00
2012-12-21,52.7,43.4,34.7,49.3,39.2,32.0,93,85,71,30.01,29.05,17,5,37,0.20
2012-12-22,38.2,33.7,28.4,32.0,22.6,9.1,84,64,37,29.59,29.19,10,4,23,0.00
2012-12-23,39.0,31.1,24.6,24.7,18.7,3.0,81,60,24,29.81,29.59,10,3,18,0.00
2012-12-24,40.3,31.5,25.9,23.2,19.7,5.5,79,62,37,30.01,29.80,8,2,12,0.00
2012-12-25,33.1,30.2,26.4,27.1,21.9,16.0,86,71,60,30.18,29.94,5,2,10,0.00
2012-12-26,35.3,28.3,17.4,31.0,20.0,4.3,92,71,46,30.28,29.91,5,2,12,0.00
2012-12-27,42.9,35.6,30.0,40.4,33.1,27.7,92,90,85,29.91,29.25,11,6,22,2.04
2012-12-28,36.2,31.8,26.5,25.5,22.4,6.0,87,68,28,29.95,29.84,7,2,16,0.00
2012-12-29,32.0,28.0,22.8,29.5,24.3,20.2,93,86,71,29.96,29.38,7,2,14,0.00
2012-12-30,31.2,27.5,24.6,27.6,20.1,11.7,92,74,49,29.70,29.40,10,4,22,0.00
2012-12-31,33.1,31.8,29.7,24.1,22.7,20.5,73,68,65,29.93,29.72,8,4,16,0.00
2013-1-1,35.6,30.5,17.5,24.5,14.8,-12.2,68,53,17,29.90,29.66,11,4,22,0.01